sensor_id;sensor_type;location;lat;lon;timestamp;pressure;altitude;pressure_sealevel;temperature;humidity
79415;BME280;68864;44.972;19.612;2023-04-03T00:01:25;100345.13;;;10.05;66.10
79415;BME280;68864;44.972;19.612;2023-04-03T00:03:52;100374.28;;;10.11;65.99
79415;BME280;68864;44.972;19.612;2023-04-03T00:06:19;100364.56;;;10.01;65.73
79415;BME280;68864;44.972;19.612;2023-04-03T00:08:47;100327.75;;;9.73;66.12
79415;BME280;68864;44.972;19.612;2023-04-03T00:11:14;100369.69;;;9.99;65.78
79415;BME280;68864;44.972;19.612;2023-04-03T00:13:41;100356.75;;;9.91;65.71
79415;BME280;68864;44.972;19.612;2023-04-03T00:16:10;100373.09;;;9.92;65.88
79415;BME280;68864;44.972;19.612;2023-04-03T00:18:38;100366.22;;;9.86;65.13
79415;BME280;68864;44.972;19.612;2023-04-03T00:21:05;100365.88;;;9.88;65.13
79415;BME280;68864;44.972;19.612;2023-04-03T00:23:32;100353.03;;;9.83;66.25
79415;BME280;68864;44.972;19.612;2023-04-03T00:26:01;100330.88;;;9.71;66.53
79415;BME280;68864;44.972;19.612;2023-04-03T00:28:28;100371.94;;;9.93;65.97
79415;BME280;68864;44.972;19.612;2023-04-03T00:30:55;100369.34;;;9.85;64.89
79415;BME280;68864;44.972;19.612;2023-04-03T00:33:21;100357.47;;;9.69;65.13
79415;BME280;68864;44.972;19.612;2023-04-03T00:35:50;100380.63;;;9.73;64.55
79415;BME280;68864;44.972;19.612;2023-04-03T00:38:17;100379.22;;;9.63;63.65
79415;BME280;68864;44.972;19.612;2023-04-03T00:40:46;100379.13;;;9.60;64.49
79415;BME280;68864;44.972;19.612;2023-04-03T00:43:16;100383.53;;;9.61;64.39
79415;BME280;68864;44.972;19.612;2023-04-03T00:45:45;100385.41;;;9.56;64.87
79415;BME280;68864;44.972;19.612;2023-04-03T00:48:15;100382.53;;;9.53;64.70
79415;BME280;68864;44.972;19.612;2023-04-03T00:50:44;100389.91;;;9.61;65.70
79415;BME280;68864;44.972;19.612;2023-04-03T00:53:14;100385.41;;;9.56;63.98
79415;BME280;68864;44.972;19.612;2023-04-03T00:55:43;100372.50;;;9.48;63.27
79415;BME280;68864;44.972;19.612;2023-04-03T00:58:11;100349.09;;;9.18;63.96
79415;BME280;68864;44.972;19.612;2023-04-03T01:00:43;100385.88;;;9.43;64.87
79415;BME280;68864;44.972;19.612;2023-04-03T01:03:11;100368.56;;;9.34;64.58
79415;BME280;68864;44.972;19.612;2023-04-03T01:05:38;100373.66;;;9.32;65.73
79415;BME280;68864;44.972;19.612;2023-04-03T01:08:06;100391.06;;;9.44;64.91
79415;BME280;68864;44.972;19.612;2023-04-03T01:10:33;100396.19;;;9.42;63.74
79415;BME280;68864;44.972;19.612;2023-04-03T01:13:00;100392.50;;;9.38;65.27
79415;BME280;68864;44.972;19.612;2023-04-03T01:15:27;100386.94;;;9.38;64.07
79415;BME280;68864;44.972;19.612;2023-04-03T01:17:57;100342.66;;;8.98;64.16
79415;BME280;68864;44.972;19.612;2023-04-03T01:23:44;100389.56;;;9.15;65.42
79415;BME280;68864;44.972;19.612;2023-04-03T01:26:13;100391.81;;;9.10;63.91
79415;BME280;68864;44.972;19.612;2023-04-03T01:28:40;100346.59;;;8.82;64.40
79415;BME280;68864;44.972;19.612;2023-04-03T01:31:13;100394.94;;;9.08;64.05
79415;BME280;68864;44.972;19.612;2023-04-03T01:33:43;100391.25;;;9.04;64.82
79415;BME280;68864;44.972;19.612;2023-04-03T01:36:14;100393.31;;;9.07;64.66
79415;BME280;68864;44.972;19.612;2023-04-03T01:38:41;100342.91;;;8.77;65.19
79415;BME280;68864;44.972;19.612;2023-04-03T01:41:08;100386.69;;;8.96;63.75
79415;BME280;68864;44.972;19.612;2023-04-03T01:43:35;100346.31;;;8.71;64.04
79415;BME280;68864;44.972;19.612;2023-04-03T01:46:02;100372.88;;;8.84;63.63
79415;BME280;68864;44.972;19.612;2023-04-03T01:48:29;100390.91;;;8.90;63.66
79415;BME280;68864;44.972;19.612;2023-04-03T01:50:57;100370.88;;;8.85;63.62
79415;BME280;68864;44.972;19.612;2023-04-03T01:53:23;100382.47;;;8.87;63.27
79415;BME280;68864;44.972;19.612;2023-04-03T01:55:50;100376.72;;;8.80;63.14
79415;BME280;68864;44.972;19.612;2023-04-03T01:58:17;100387.75;;;8.92;63.98
79415;BME280;68864;44.972;19.612;2023-04-03T02:00:43;100337.34;;;8.62;63.53
79415;BME280;68864;44.972;19.612;2023-04-03T02:03:10;100341.63;;;8.59;65.00
79415;BME280;68864;44.972;19.612;2023-04-03T02:05:38;100331.94;;;8.38;63.88
79415;BME280;68864;44.972;19.612;2023-04-03T02:08:06;100405.38;;;8.68;63.21
79415;BME280;68864;44.972;19.612;2023-04-03T02:10:32;100262.03;;;7.80;64.06
79415;BME280;68864;44.972;19.612;2023-04-03T02:12:59;100360.41;;;8.34;63.69
79415;BME280;68864;44.972;19.612;2023-04-03T02:15:26;100394.13;;;8.49;64.17
79415;BME280;68864;44.972;19.612;2023-04-03T02:17:53;100410.19;;;8.55;64.13
79415;BME280;68864;44.972;19.612;2023-04-03T02:20:19;100416.63;;;8.59;63.59
79415;BME280;68864;44.972;19.612;2023-04-03T02:22:46;100413.84;;;8.59;64.25
79415;BME280;68864;44.972;19.612;2023-04-03T02:25:15;100414.66;;;8.60;63.66
79415;BME280;68864;44.972;19.612;2023-04-03T02:27:43;100420.97;;;8.72;65.17
79415;BME280;68864;44.972;19.612;2023-04-03T02:30:10;100418.38;;;8.80;64.80
79415;BME280;68864;44.972;19.612;2023-04-03T02:32:37;100419.31;;;8.84;64.14
79415;BME280;68864;44.972;19.612;2023-04-03T02:35:04;100420.28;;;8.91;63.29
79415;BME280;68864;44.972;19.612;2023-04-03T02:37:31;100411.53;;;8.89;64.26
79415;BME280;68864;44.972;19.612;2023-04-03T02:39:57;100412.03;;;8.79;63.53
79415;BME280;68864;44.972;19.612;2023-04-03T02:42:25;100402.59;;;8.68;62.67
79415;BME280;68864;44.972;19.612;2023-04-03T02:44:52;100416.34;;;8.76;64.16
79415;BME280;68864;44.972;19.612;2023-04-03T02:47:19;100420.16;;;8.72;62.96
79415;BME280;68864;44.972;19.612;2023-04-03T02:49:46;100417.66;;;8.67;64.41
79415;BME280;68864;44.972;19.612;2023-04-03T02:52:13;100375.03;;;8.47;63.18
79415;BME280;68864;44.972;19.612;2023-04-03T02:54:40;100420.16;;;8.72;63.88
79415;BME280;68864;44.972;19.612;2023-04-03T02:57:06;100408.34;;;8.75;63.27
79415;BME280;68864;44.972;19.612;2023-04-03T02:59:35;100421.09;;;8.76;62.98
79415;BME280;68864;44.972;19.612;2023-04-03T03:02:02;100420.78;;;8.65;63.72
79415;BME280;68864;44.972;19.612;2023-04-03T03:04:29;100414.41;;;8.65;63.18
79415;BME280;68864;44.972;19.612;2023-04-03T03:06:55;100425.44;;;8.61;63.91
79415;BME280;68864;44.972;19.612;2023-04-03T03:09:22;100408.66;;;8.58;63.47
79415;BME280;68864;44.972;19.612;2023-04-03T03:11:50;100404.28;;;8.57;63.76
79415;BME280;68864;44.972;19.612;2023-04-03T03:14:17;100369.41;;;8.31;63.59
79415;BME280;68864;44.972;19.612;2023-04-03T03:16:45;100415.22;;;8.65;63.93
79415;BME280;68864;44.972;19.612;2023-04-03T03:19:12;100400.22;;;8.54;64.06
79415;BME280;68864;44.972;19.612;2023-04-03T03:21:39;100428.34;;;8.53;63.12
79415;BME280;68864;44.972;19.612;2023-04-03T03:24:06;100425.69;;;8.56;64.25
79415;BME280;68864;44.972;19.612;2023-04-03T03:26:33;100428.06;;;8.42;64.87
79415;BME280;68864;44.972;19.612;2023-04-03T03:29:00;100440.19;;;8.50;64.44
79415;BME280;68864;44.972;19.612;2023-04-03T03:31:26;100433.47;;;8.51;63.71
79415;BME280;68864;44.972;19.612;2023-04-03T03:33:54;100435.19;;;8.55;64.26
79415;BME280;68864;44.972;19.612;2023-04-03T03:36:21;100437.63;;;8.57;64.69
79415;BME280;68864;44.972;19.612;2023-04-03T03:38:48;100427.81;;;8.47;65.24
79415;BME280;68864;44.972;19.612;2023-04-03T03:41:15;100442.31;;;8.68;65.51
79415;BME280;68864;44.972;19.612;2023-04-03T03:43:41;100438.16;;;8.62;64.53
79415;BME280;68864;44.972;19.612;2023-04-03T03:46:08;100445.44;;;8.67;63.94
79415;BME280;68864;44.972;19.612;2023-04-03T03:48:35;100448.97;;;8.80;64.80
79415;BME280;68864;44.972;19.612;2023-04-03T03:51:03;100450.69;;;8.84;65.08
79415;BME280;68864;44.972;19.612;2023-04-03T03:53:30;100448.97;;;8.80;64.05
79415;BME280;68864;44.972;19.612;2023-04-03T03:55:56;100458.91;;;8.81;65.23
79415;BME280;68864;44.972;19.612;2023-04-03T03:58:23;100448.41;;;8.74;65.43
79415;BME280;68864;44.972;19.612;2023-04-03T04:00:50;100457.84;;;8.85;65.30
79415;BME280;68864;44.972;19.612;2023-04-03T04:03:17;100456.88;;;8.93;65.14
79415;BME280;68864;44.972;19.612;2023-04-03T04:05:44;100449.34;;;8.94;63.56
79415;BME280;68864;44.972;19.612;2023-04-03T04:08:12;100465.97;;;9.06;64.31
79415;BME280;68864;44.972;19.612;2023-04-03T04:10:38;100472.44;;;9.10;66.33
79415;BME280;68864;44.972;19.612;2023-04-03T04:13:05;100453.94;;;9.02;66.46
79415;BME280;68864;44.972;19.612;2023-04-03T04:15:32;100423.25;;;8.83;66.06
79415;BME280;68864;44.972;19.612;2023-04-03T04:17:59;100479.56;;;9.23;65.92
79415;BME280;68864;44.972;19.612;2023-04-03T04:20:25;100481.13;;;9.24;65.44
79415;BME280;68864;44.972;19.612;2023-04-03T04:22:52;100398.81;;;8.60;65.62
79415;BME280;68864;44.972;19.612;2023-04-03T04:25:21;100430.22;;;8.76;66.60
79415;BME280;68864;44.972;19.612;2023-04-03T04:27:48;100419.94;;;8.77;66.31
79415;BME280;68864;44.972;19.612;2023-04-03T04:30:15;100484.25;;;9.07;65.33
79415;BME280;68864;44.972;19.612;2023-04-03T04:32:42;100436.94;;;8.75;65.77
79415;BME280;68864;44.972;19.612;2023-04-03T04:35:08;100432.09;;;8.72;65.58
79415;BME280;68864;44.972;19.612;2023-04-03T04:37:35;100482.00;;;8.97;66.35
79415;BME280;68864;44.972;19.612;2023-04-03T04:40:02;100492.53;;;9.03;66.84
79415;BME280;68864;44.972;19.612;2023-04-03T04:42:30;100495.66;;;9.02;66.23
79415;BME280;68864;44.972;19.612;2023-04-03T04:44:57;100497.97;;;9.00;66.35
79415;BME280;68864;44.972;19.612;2023-04-03T04:47:24;100492.13;;;8.89;65.97
79415;BME280;68864;44.972;19.612;2023-04-03T04:49:50;100492.19;;;8.93;66.73
79415;BME280;68864;44.972;19.612;2023-04-03T04:52:17;100500.28;;;8.98;67.13
79415;BME280;68864;44.972;19.612;2023-04-03T04:54:44;100506.56;;;8.95;66.61
79415;BME280;68864;44.972;19.612;2023-04-03T04:57:11;100505.06;;;8.97;66.86
79415;BME280;68864;44.972;19.612;2023-04-03T04:59:39;100497.88;;;8.96;67.22
79415;BME280;68864;44.972;19.612;2023-04-03T05:02:06;100512.81;;;8.92;67.87
79415;BME280;68864;44.972;19.612;2023-04-03T05:04:33;100500.88;;;8.91;68.15
79415;BME280;68864;44.972;19.612;2023-04-03T05:06:59;100488.31;;;8.82;68.47
79415;BME280;68864;44.972;19.612;2023-04-03T05:09:26;100497.56;;;8.86;68.64
79415;BME280;68864;44.972;19.612;2023-04-03T05:11:53;100504.75;;;8.87;69.30
79415;BME280;68864;44.972;19.612;2023-04-03T05:14:21;100499.53;;;8.85;69.22
79415;BME280;68864;44.972;19.612;2023-04-03T05:16:49;100505.06;;;8.69;69.63
79415;BME280;68864;44.972;19.612;2023-04-03T05:19:18;100499.28;;;8.62;70.25
79415;BME280;68864;44.972;19.612;2023-04-03T05:21:45;100508.34;;;8.47;70.63
79415;BME280;68864;44.972;19.612;2023-04-03T05:24:12;100500.13;;;8.26;71.51
79415;BME280;68864;44.972;19.612;2023-04-03T05:26:40;100515.09;;;8.34;71.25
79415;BME280;68864;44.972;19.612;2023-04-03T05:29:07;100506.50;;;8.39;70.51
79415;BME280;68864;44.972;19.612;2023-04-03T05:31:34;100508.94;;;8.41;71.07
79415;BME280;68864;44.972;19.612;2023-04-03T05:34:02;100519.38;;;8.44;71.17
79415;BME280;68864;44.972;19.612;2023-04-03T05:36:29;100524.91;;;8.44;71.62
79415;BME280;68864;44.972;19.612;2023-04-03T05:38:56;100513.22;;;8.38;71.75
79415;BME280;68864;44.972;19.612;2023-04-03T05:41:23;100523.03;;;8.48;70.96
79415;BME280;68864;44.972;19.612;2023-04-03T05:43:50;100529.28;;;8.45;71.25
79415;BME280;68864;44.972;19.612;2023-04-03T05:46:18;100528.38;;;8.28;73.45
79415;BME280;68864;44.972;19.612;2023-04-03T05:48:46;100537.31;;;8.34;72.81
79415;BME280;68864;44.972;19.612;2023-04-03T05:51:16;100533.59;;;8.42;72.55
79415;BME280;68864;44.972;19.612;2023-04-03T05:53:43;100531.06;;;8.37;72.52
79415;BME280;68864;44.972;19.612;2023-04-03T05:56:11;100536.25;;;8.38;73.09
79415;BME280;68864;44.972;19.612;2023-04-03T05:58:37;100540.06;;;8.46;72.50
79415;BME280;68864;44.972;19.612;2023-04-03T06:01:04;100497.28;;;8.23;72.23
79415;BME280;68864;44.972;19.612;2023-04-03T06:03:31;100537.63;;;8.45;72.42
79415;BME280;68864;44.972;19.612;2023-04-03T06:05:58;100536.34;;;8.54;72.43
79415;BME280;68864;44.972;19.612;2023-04-03T06:08:26;100543.38;;;8.64;72.50
79415;BME280;68864;44.972;19.612;2023-04-03T06:10:53;100546.25;;;8.67;73.26
79415;BME280;68864;44.972;19.612;2023-04-03T06:13:20;100534.84;;;8.57;73.54
79415;BME280;68864;44.972;19.612;2023-04-03T06:15:47;100542.47;;;8.60;73.78
79415;BME280;68864;44.972;19.612;2023-04-03T06:18:14;100509.75;;;8.29;74.09
79415;BME280;68864;44.972;19.612;2023-04-03T06:20:40;100556.25;;;8.56;75.18
79415;BME280;68864;44.972;19.612;2023-04-03T06:23:07;100538.56;;;8.49;73.96
79415;BME280;68864;44.972;19.612;2023-04-03T06:25:35;100556.13;;;8.53;75.29
79415;BME280;68864;44.972;19.612;2023-04-03T06:28:02;100570.00;;;8.65;74.70
79415;BME280;68864;44.972;19.612;2023-04-03T06:30:29;100561.66;;;8.65;73.99
79415;BME280;68864;44.972;19.612;2023-04-03T06:32:55;100567.13;;;8.61;74.94
79415;BME280;68864;44.972;19.612;2023-04-03T06:35:22;100563.53;;;8.61;74.97
79415;BME280;68864;44.972;19.612;2023-04-03T06:37:50;100521.44;;;8.34;75.60
79415;BME280;68864;44.972;19.612;2023-04-03T06:40:19;100569.00;;;8.57;73.74
79415;BME280;68864;44.972;19.612;2023-04-03T06:42:49;100570.78;;;8.65;73.77
79415;BME280;68864;44.972;19.612;2023-04-03T06:45:15;100578.69;;;8.63;72.61
79415;BME280;68864;44.972;19.612;2023-04-03T06:47:42;100589.44;;;8.65;72.63
79415;BME280;68864;44.972;19.612;2023-04-03T06:50:11;100586.66;;;8.65;72.49
79415;BME280;68864;44.972;19.612;2023-04-03T06:52:39;100584.59;;;8.62;71.63
79415;BME280;68864;44.972;19.612;2023-04-03T06:55:07;100595.00;;;8.65;71.55
79415;BME280;68864;44.972;19.612;2023-04-03T06:57:34;100603.22;;;8.61;72.27
79415;BME280;68864;44.972;19.612;2023-04-03T07:00:04;100597.69;;;8.61;72.03
79415;BME280;68864;44.972;19.612;2023-04-03T07:02:31;100591.19;;;8.45;72.37
79415;BME280;68864;44.972;19.612;2023-04-03T07:04:58;100608.78;;;8.61;72.67
79415;BME280;68864;44.972;19.612;2023-04-03T07:07:25;100566.91;;;8.30;72.25
79415;BME280;68864;44.972;19.612;2023-04-03T07:09:51;100611.91;;;8.60;71.46
79415;BME280;68864;44.972;19.612;2023-04-03T07:12:18;100604.28;;;8.57;71.55
79415;BME280;68864;44.972;19.612;2023-04-03T07:14:45;100602.31;;;8.57;72.13
79415;BME280;68864;44.972;19.612;2023-04-03T07:17:13;100617.81;;;8.70;70.86
79415;BME280;68864;44.972;19.612;2023-04-03T07:19:40;100624.50;;;8.82;70.81
79415;BME280;68864;44.972;19.612;2023-04-03T07:22:07;100620.66;;;8.86;70.25
79415;BME280;68864;44.972;19.612;2023-04-03T07:24:34;100585.50;;;8.66;69.37
79415;BME280;68864;44.972;19.612;2023-04-03T07:27:01;100622.72;;;9.01;69.69
79415;BME280;68864;44.972;19.612;2023-04-03T07:29:28;100626.72;;;9.16;69.83
79415;BME280;68864;44.972;19.612;2023-04-03T07:31:55;100640.13;;;9.26;70.38
79415;BME280;68864;44.972;19.612;2023-04-03T07:34:23;100636.03;;;9.36;70.41
79415;BME280;68864;44.972;19.612;2023-04-03T07:36:50;100633.34;;;9.39;69.27
79415;BME280;68864;44.972;19.612;2023-04-03T07:39:17;100631.78;;;9.54;69.49
79415;BME280;68864;44.972;19.612;2023-04-03T07:41:44;100631.50;;;9.59;69.20
79415;BME280;68864;44.972;19.612;2023-04-03T07:44:11;100623.81;;;9.68;69.69
79415;BME280;68864;44.972;19.612;2023-04-03T07:46:37;100634.34;;;9.75;68.94
79415;BME280;68864;44.972;19.612;2023-04-03T07:49:06;100634.88;;;9.80;68.58
79415;BME280;68864;44.972;19.612;2023-04-03T07:51:34;100632.28;;;9.87;68.36
79415;BME280;68864;44.972;19.612;2023-04-03T07:54:01;100617.47;;;9.99;67.16
79415;BME280;68864;44.972;19.612;2023-04-03T07:56:28;100604.19;;;10.08;67.37
79415;BME280;68864;44.972;19.612;2023-04-03T07:58:54;100626.50;;;10.40;66.44
79415;BME280;68864;44.972;19.612;2023-04-03T08:01:21;100639.16;;;10.53;65.39
79415;BME280;68864;44.972;19.612;2023-04-03T08:03:48;100642.97;;;10.64;65.03
79415;BME280;68864;44.972;19.612;2023-04-03T08:06:16;100635.53;;;10.68;64.44
79415;BME280;68864;44.972;19.612;2023-04-03T08:08:44;100641.63;;;10.73;64.40
79415;BME280;68864;44.972;19.612;2023-04-03T08:11:11;100637.84;;;10.82;64.11
79415;BME280;68864;44.972;19.612;2023-04-03T08:13:38;100649.97;;;10.89;64.22
79415;BME280;68864;44.972;19.612;2023-04-03T08:16:08;100635.00;;;10.97;63.94
79415;BME280;68864;44.972;19.612;2023-04-03T08:18:35;100641.63;;;11.08;62.81
79415;BME280;68864;44.972;19.612;2023-04-03T08:21:06;100592.78;;;10.99;62.65
79415;BME280;68864;44.972;19.612;2023-04-03T08:23:32;100628.56;;;11.32;61.67
79415;BME280;68864;44.972;19.612;2023-04-03T08:26:05;100588.69;;;11.12;61.79
79415;BME280;68864;44.972;19.612;2023-04-03T08:28:32;100632.78;;;11.83;60.14
79415;BME280;68864;44.972;19.612;2023-04-03T08:31:03;100628.09;;;12.33;58.00
79415;BME280;68864;44.972;19.612;2023-04-03T08:33:31;100628.19;;;12.89;56.12
79415;BME280;68864;44.972;19.612;2023-04-03T08:35:57;100632.97;;;13.48;54.92
79415;BME280;68864;44.972;19.612;2023-04-03T08:38:25;100631.00;;;13.86;53.95
79415;BME280;68864;44.972;19.612;2023-04-03T08:41:03;100608.56;;;14.26;51.21
79415;BME280;68864;44.972;19.612;2023-04-03T08:43:36;100615.03;;;14.85;49.98
79415;BME280;68864;44.972;19.612;2023-04-03T08:46:11;100618.31;;;16.16;48.87
79415;BME280;68864;44.972;19.612;2023-04-03T08:48:41;100590.63;;;20.28;38.46
79415;BME280;68864;44.972;19.612;2023-04-03T08:51:13;100601.88;;;19.81;39.44
79415;BME280;68864;44.972;19.612;2023-04-03T08:53:44;100606.00;;;19.47;39.57
79415;BME280;68864;44.972;19.612;2023-04-03T08:56:18;100597.19;;;19.37;39.95
79415;BME280;68864;44.972;19.612;2023-04-03T08:58:48;100566.75;;;19.52;38.86
79415;BME280;68864;44.972;19.612;2023-04-03T09:01:20;100602.63;;;20.62;37.05
79415;BME280;68864;44.972;19.612;2023-04-03T09:03:47;100597.94;;;20.76;37.88
79415;BME280;68864;44.972;19.612;2023-04-03T09:06:17;100611.34;;;19.98;38.60
79415;BME280;68864;44.972;19.612;2023-04-03T09:08:50;100615.28;;;19.10;40.98
79415;BME280;68864;44.972;19.612;2023-04-03T09:11:23;100625.97;;;18.43;41.22
79415;BME280;68864;44.972;19.612;2023-04-03T09:13:57;100620.81;;;17.79;41.85
79415;BME280;68864;44.972;19.612;2023-04-03T09:16:29;100621.06;;;17.12;43.46
79415;BME280;68864;44.972;19.612;2023-04-03T09:19:07;100617.13;;;16.85;44.35
79415;BME280;68864;44.972;19.612;2023-04-03T09:21:40;100619.13;;;16.56;46.29
79415;BME280;68864;44.972;19.612;2023-04-03T09:24:09;100617.13;;;16.28;46.36
79415;BME280;68864;44.972;19.612;2023-04-03T09:26:42;100624.38;;;16.15;46.41
79415;BME280;68864;44.972;19.612;2023-04-03T09:29:14;100620.28;;;15.84;47.56
79415;BME280;68864;44.972;19.612;2023-04-03T09:31:44;100635.06;;;15.60;48.42
79415;BME280;68864;44.972;19.612;2023-04-03T09:34:19;100619.34;;;15.48;48.07
79415;BME280;68864;44.972;19.612;2023-04-03T09:36:49;100624.50;;;15.32;48.96
79415;BME280;68864;44.972;19.612;2023-04-03T09:39:18;100622.72;;;14.95;49.78
79415;BME280;68864;44.972;19.612;2023-04-03T09:41:58;100638.22;;;14.75;49.69
79415;BME280;68864;44.972;19.612;2023-04-03T09:44:27;100628.63;;;14.32;51.48
79415;BME280;68864;44.972;19.612;2023-04-03T09:46:54;100618.41;;;14.10;52.84
79415;BME280;68864;44.972;19.612;2023-04-03T09:49:21;100624.00;;;14.06;52.92
79415;BME280;68864;44.972;19.612;2023-04-03T09:51:48;100623.44;;;14.34;52.55
79415;BME280;68864;44.972;19.612;2023-04-03T09:54:36;100620.47;;;14.60;51.06
79415;BME280;68864;44.972;19.612;2023-04-03T09:57:10;100606.69;;;15.03;50.34
79415;BME280;68864;44.972;19.612;2023-04-03T09:59:42;100581.09;;;14.46;50.83
79415;BME280;68864;44.972;19.612;2023-04-03T10:02:23;100615.56;;;14.47;51.13
79415;BME280;68864;44.972;19.612;2023-04-03T10:04:54;100590.94;;;14.81;51.35
79415;BME280;68864;44.972;19.612;2023-04-03T10:07:40;100593.13;;;15.08;49.64
79415;BME280;68864;44.972;19.612;2023-04-03T10:10:18;100545.97;;;14.70;50.26
79415;BME280;68864;44.972;19.612;2023-04-03T10:12:46;100585.25;;;14.70;50.67
79415;BME280;68864;44.972;19.612;2023-04-03T10:15:15;100551.13;;;14.06;51.95
79415;BME280;68864;44.972;19.612;2023-04-03T10:17:51;100600.16;;;14.30;52.39
79415;BME280;68864;44.972;19.612;2023-04-03T10:20:27;100599.53;;;14.47;52.26
79415;BME280;68864;44.972;19.612;2023-04-03T10:23:05;100592.81;;;14.59;51.42
79415;BME280;68864;44.972;19.612;2023-04-03T10:25:42;100592.53;;;14.78;50.59
79415;BME280;68864;44.972;19.612;2023-04-03T10:28:20;100586.09;;;14.78;51.13
79415;BME280;68864;44.972;19.612;2023-04-03T10:30:55;100611.63;;;14.58;51.20
79415;BME280;68864;44.972;19.612;2023-04-03T10:33:42;100594.63;;;14.37;51.21
79415;BME280;68864;44.972;19.612;2023-04-03T10:36:18;100583.25;;;14.19;51.64
79415;BME280;68864;44.972;19.612;2023-04-03T10:38:51;100603.13;;;14.00;51.94
79415;BME280;68864;44.972;19.612;2023-04-03T10:41:27;100596.13;;;13.80;53.40
79415;BME280;68864;44.972;19.612;2023-04-03T10:44:08;100578.59;;;13.49;52.04
79415;BME280;68864;44.972;19.612;2023-04-03T10:46:45;100546.03;;;13.04;53.58
79415;BME280;68864;44.972;19.612;2023-04-03T10:49:25;100584.69;;;13.25;54.04
79415;BME280;68864;44.972;19.612;2023-04-03T10:51:57;100574.38;;;13.29;54.08
79415;BME280;68864;44.972;19.612;2023-04-03T10:54:35;100548.81;;;13.04;53.57
79415;BME280;68864;44.972;19.612;2023-04-03T10:57:05;100584.88;;;13.39;54.45
79415;BME280;68864;44.972;19.612;2023-04-03T10:59:37;100598.75;;;13.62;54.13
79415;BME280;68864;44.972;19.612;2023-04-03T11:02:07;100548.28;;;13.59;53.02
79415;BME280;68864;44.972;19.612;2023-04-03T11:04:43;100578.41;;;14.16;52.56
79415;BME280;68864;44.972;19.612;2023-04-03T11:07:15;100564.22;;;14.39;51.82
79415;BME280;68864;44.972;19.612;2023-04-03T11:09:44;100568.63;;;14.40;50.81
79415;BME280;68864;44.972;19.612;2023-04-03T11:12:17;100558.53;;;14.32;51.84
79415;BME280;68864;44.972;19.612;2023-04-03T11:14:47;100556.34;;;14.59;51.47
79415;BME280;68864;44.972;19.612;2023-04-03T11:17:23;100547.19;;;14.69;51.16
79415;BME280;68864;44.972;19.612;2023-04-03T11:19:59;100540.06;;;14.86;52.01
79415;BME280;68864;44.972;19.612;2023-04-03T11:22:30;100525.09;;;14.64;50.33
79415;BME280;68864;44.972;19.612;2023-04-03T11:25:04;100488.59;;;14.57;50.46
79415;BME280;68864;44.972;19.612;2023-04-03T11:27:37;100532.94;;;15.06;49.95
79415;BME280;68864;44.972;19.612;2023-04-03T11:30:14;100523.41;;;15.39;50.87
79415;BME280;68864;44.972;19.612;2023-04-03T11:33:11;100521.50;;;15.61;48.98
79415;BME280;68864;44.972;19.612;2023-04-03T11:35:46;100503.38;;;15.51;48.84
79415;BME280;68864;44.972;19.612;2023-04-03T11:38:18;100472.84;;;15.28;48.37
79415;BME280;68864;44.972;19.612;2023-04-03T11:40:46;100511.06;;;15.61;49.04
79415;BME280;68864;44.972;19.612;2023-04-03T11:43:22;100478.06;;;15.26;49.23
79415;BME280;68864;44.972;19.612;2023-04-03T11:45:55;100467.22;;;15.28;49.38
79415;BME280;68864;44.972;19.612;2023-04-03T11:48:49;100498.19;;;15.57;48.29
79415;BME280;68864;44.972;19.612;2023-04-03T11:51:40;100471.25;;;15.38;48.32
79415;BME280;68864;44.972;19.612;2023-04-03T11:54:46;100506.22;;;15.55;48.72
79415;BME280;68864;44.972;19.612;2023-04-03T11:58:02;100497.75;;;15.44;48.88
79415;BME280;68864;44.972;19.612;2023-04-03T12:00:59;100497.63;;;14.94;49.36
79415;BME280;68864;44.972;19.612;2023-04-03T12:10:13;100456.50;;;14.47;52.44
79415;BME280;68864;44.972;19.612;2023-04-03T12:12:41;100461.03;;;14.73;51.92
79415;BME280;68864;44.972;19.612;2023-04-03T12:15:23;100454.28;;;14.88;50.87
79415;BME280;68864;44.972;19.612;2023-04-03T12:17:52;100447.38;;;14.61;51.97
79415;BME280;68864;44.972;19.612;2023-04-03T12:20:52;100458.63;;;14.03;52.51
79415;BME280;68864;44.972;19.612;2023-04-03T12:23:28;100458.41;;;13.74;53.21
79415;BME280;68864;44.972;19.612;2023-04-03T12:26:01;100431.19;;;13.27;55.32
79415;BME280;68864;44.972;19.612;2023-04-03T12:28:36;100479.66;;;13.35;54.77
79415;BME280;68864;44.972;19.612;2023-04-03T12:31:04;100474.50;;;13.44;54.49
79415;BME280;68864;44.972;19.612;2023-04-03T12:33:51;;;;13.55;
79415;BME280;68864;44.972;19.612;2023-04-03T12:36:30;100477.97;;;13.71;53.78
79415;BME280;68864;44.972;19.612;2023-04-03T12:39:17;100476.09;;;13.85;53.69
79415;BME280;68864;44.972;19.612;2023-04-03T12:41:56;100466.06;;;13.84;53.05
79415;BME280;68864;44.972;19.612;2023-04-03T12:44:35;100437.50;;;13.61;53.13
79415;BME280;68864;44.972;19.612;2023-04-03T12:47:18;100460.53;;;13.91;52.82
79415;BME280;68864;44.972;19.612;2023-04-03T12:49:49;100478.53;;;13.90;54.24
79415;BME280;68864;44.972;19.612;2023-04-03T12:52:24;100482.94;;;13.91;54.21
79415;BME280;68864;44.972;19.612;2023-04-03T12:54:54;100417.44;;;13.56;54.10
79415;BME280;68864;44.972;19.612;2023-04-03T12:57:24;100461.66;;;13.83;53.87
79415;BME280;68864;44.972;19.612;2023-04-03T12:59:51;100419.44;;;13.59;53.78
79415;BME280;68864;44.972;19.612;2023-04-03T13:02:24;100451.06;;;13.59;54.07
79415;BME280;68864;44.972;19.612;2023-04-03T13:04:53;100428.31;;;13.20;53.61
79415;BME280;68864;44.972;19.612;2023-04-03T13:07:26;100474.38;;;13.30;54.75
79415;BME280;68864;44.972;19.612;2023-04-03T13:09:58;100470.72;;;13.22;55.12